Time;durP1;ratioP1;P1;durP2;ratioP2;P2;SDS_P1;SDS_P2;PMS_P1;PMS_P2;Temp;Humidity;BMP_temperature;BMP_pressure;BME280_temperature;BME280_humidity;BME280_pressure;Samples;Min_cycle;Max_cycle;Signal;HPM_P1;HPM_P2
2023/07/23 00:00:07;;;;;;;0.20;0.20;;;27.70;72.10;;;;;;4841133;29;20198;-81
2023/07/23 00:02:37;;;;;;;0.40;0.30;;;27.70;72.30;;;;;;4836772;29;20294;-81
2023/07/23 00:05:06;;;;;;;0.55;0.55;;;27.70;72.10;;;;;;4840506;29;20875;-82
2023/07/23 00:07:35;;;;;;;0.80;0.60;;;27.60;71.90;;;;;;4839392;29;20217;-81
2023/07/23 00:10:04;;;;;;;0.88;0.60;;;27.60;71.70;;;;;;4838054;29;20230;-82
2023/07/23 00:12:34;;;;;;;0.30;0.30;;;27.60;71.70;;;;;;4831066;29;20206;-82
2023/07/23 00:15:03;;;;;;;0.98;0.73;;;27.60;71.70;;;;;;4838832;29;20248;-81
2023/07/23 00:17:32;;;;;;;0.63;0.63;;;27.60;71.90;;;;;;4824171;29;20242;-82
2023/07/23 00:20:04;;;;;;;1.42;0.47;;;27.60;71.60;;;;;;4836079;29;20204;-82
2023/07/23 00:22:32;;;;;;;0.28;0.20;;;27.60;71.40;;;;;;4838045;29;20195;-82
2023/07/23 00:25:01;;;;;;;0.63;0.45;;;27.60;71.50;;;;;;4836012;29;20233;-82
2023/07/23 00:27:33;;;;;;;0.25;0.25;;;27.60;71.50;;;;;;4840793;29;20207;-82
2023/07/23 00:30:03;;;;;;;0.80;0.30;;;27.60;72.50;;;;;;4838345;29;20222;-82
2023/07/23 00:32:31;;;;;;;1.63;0.40;;;27.60;71.70;;;;;;4823534;29;20723;-82
2023/07/23 00:35:00;;;;;;;2.25;1.30;;;27.60;71.70;;;;;;4837328;29;20302;-82
2023/07/23 00:37:31;;;;;;;1.83;0.88;;;27.60;71.80;;;;;;4821925;29;20203;-82
2023/07/23 00:40:00;;;;;;;0.90;0.40;;;27.60;71.90;;;;;;4839858;29;20290;-80
2023/07/23 00:42:30;;;;;;;0.43;0.43;;;27.60;71.80;;;;;;4839910;29;20202;-82
2023/07/23 00:44:59;;;;;;;0.40;0.40;;;27.60;71.80;;;;;;4830607;29;20227;-82
2023/07/23 00:47:27;;;;;;;0.85;0.57;;;27.60;71.60;;;;;;4822890;29;20575;-83
2023/07/23 00:49:57;;;;;;;0.55;0.55;;;27.50;71.50;;;;;;4840363;29;20217;-81
2023/07/23 00:52:26;;;;;;;0.40;0.30;;;27.50;71.40;;;;;;4839991;29;20206;-82
2023/07/23 00:54:56;;;;;;;0.40;0.40;;;27.50;71.30;;;;;;4830232;29;20890;-84
2023/07/23 00:57:25;;;;;;;1.08;0.50;;;27.50;71.30;;;;;;4836746;29;20210;-84
2023/07/23 00:59:56;;;;;;;0.98;0.80;;;27.50;72.00;;;;;;4839929;29;20210;-83
2023/07/23 01:02:26;;;;;;;0.80;0.43;;;27.50;71.00;;;;;;4836196;29;20618;-83
2023/07/23 01:04:56;;;;;;;0.20;0.20;;;27.50;70.90;;;;;;4835628;29;20230;-82
2023/07/23 01:07:26;;;;;;;0.80;0.20;;;27.50;70.80;;;;;;4833488;29;20203;-83
2023/07/23 01:09:57;;;;;;;0.43;0.40;;;27.50;70.60;;;;;;4841086;29;20244;-83
2023/07/23 01:12:26;;;;;;;0.28;0.28;;;27.50;70.50;;;;;;4858342;29;20210;-83
2023/07/23 01:14:56;;;;;;;0.40;0.40;;;27.50;70.50;;;;;;4838435;29;20212;-83
2023/07/23 01:17:25;;;;;;;0.45;0.40;;;27.50;70.40;;;;;;4857972;29;20205;-83
2023/07/23 01:20:03;;;;;;;1.13;0.63;;;27.50;70.40;;;;;;4854350;29;20208;-83
2023/07/23 01:22:33;;;;;;;1.65;0.30;;;27.50;70.50;;;;;;4853424;29;20685;-83
2023/07/23 01:25:01;;;;;;;0.90;0.70;;;27.50;70.70;;;;;;4856590;29;20485;-84
2023/07/23 01:27:30;;;;;;;0.30;0.30;;;27.40;70.80;;;;;;4860094;29;20202;-83
2023/07/23 01:29:58;;;;;;;0.82;0.75;;;27.40;70.90;;;;;;4855259;29;20202;-84
2023/07/23 01:32:27;;;;;;;2.95;0.60;;;27.40;71.20;;;;;;4856648;29;20198;-82
2023/07/23 01:34:58;;;;;;;0.68;0.60;;;27.40;71.30;;;;;;4851383;29;20754;-83
2023/07/23 01:37:26;;;;;;;0.40;0.40;;;27.40;71.20;;;;;;4847294;29;20206;-82
2023/07/23 01:39:56;;;;;;;0.70;0.70;;;27.40;71.10;;;;;;4856472;29;20300;-82
2023/07/23 01:42:26;;;;;;;1.08;0.98;;;27.40;70.90;;;;;;4853101;29;20198;-83
2023/07/23 01:44:55;;;;;;;0.30;0.30;;;27.40;70.70;;;;;;4854526;29;20563;-84
2023/07/23 01:47:24;;;;;;;0.57;0.50;;;27.40;70.60;;;;;;4850782;29;20206;-84
2023/07/23 01:49:53;;;;;;;0.60;0.30;;;27.40;70.90;;;;;;4855741;29;20234;-82
2023/07/23 01:52:23;;;;;;;0.40;0.40;;;27.50;71.40;;;;;;4856126;29;20691;-84
2023/07/23 01:54:51;;;;;;;0.65;0.50;;;27.40;71.70;;;;;;4847260;29;20217;-83
2023/07/23 01:57:21;;;;;;;1.27;0.60;;;27.40;74.70;;;;;;4856632;29;20214;-83
2023/07/23 01:59:53;;;;;;;1.17;0.60;;;27.40;75.00;;;;;;4853415;29;20198;-84
2023/07/23 02:02:21;;;;;;;0.40;0.40;;;27.30;76.20;;;;;;4853969;29;20201;-83
2023/07/23 02:04:51;;;;;;;2.35;0.70;;;27.20;78.30;;;;;;4851931;29;20198;-82
2023/07/23 02:07:20;;;;;;;1.75;0.77;;;27.10;79.60;;;;;;4855466;29;20313;-82
2023/07/23 02:09:52;;;;;;;1.13;1.05;;;27.10;81.20;;;;;;4856087;29;20240;-81
2023/07/23 02:12:22;;;;;;;2.15;1.90;;;27.00;83.10;;;;;;4856713;29;20201;-84
2023/07/23 02:14:50;;;;;;;0.65;0.50;;;26.80;85.30;;;;;;4856108;29;20205;-81
2023/07/23 02:17:19;;;;;;;1.77;1.17;;;26.80;85.50;;;;;;4857183;29;20202;-82
2023/07/23 02:19:48;;;;;;;0.32;0.32;;;26.60;88.70;;;;;;4846918;29;20198;-82
2023/07/23 02:22:17;;;;;;;0.63;0.63;;;26.50;87.00;;;;;;4858326;29;20206;-82
2023/07/23 02:24:45;;;;;;;1.48;0.82;;;26.40;88.60;;;;;;4855062;29;20206;-82
2023/07/23 02:27:15;;;;;;;0.68;0.57;;;26.40;87.70;;;;;;4852916;29;20228;-82
2023/07/23 02:29:45;;;;;;;1.08;0.73;;;26.40;87.20;;;;;;4848946;29;20666;-82
2023/07/23 02:32:14;;;;;;;0.77;0.68;;;26.30;86.20;;;;;;4843249;29;20199;-81
2023/07/23 02:34:43;;;;;;;0.40;0.40;;;26.30;85.80;;;;;;4853640;29;20198;-82
2023/07/23 02:37:12;;;;;;;1.15;0.70;;;26.20;85.20;;;;;;4854601;29;20202;-82
2023/07/23 02:39:41;;;;;;;1.92;0.47;;;26.20;85.70;;;;;;4857987;29;20202;-82
2023/07/23 02:42:09;;;;;;;1.35;0.57;;;26.20;86.00;;;;;;4854779;29;20650;-82
2023/07/23 02:44:38;;;;;;;1.90;0.70;;;26.20;86.20;;;;;;4849652;29;20210;-82
2023/07/23 02:47:09;;;;;;;0.68;0.68;;;26.10;86.20;;;;;;4852025;29;20236;-81
2023/07/23 02:49:41;;;;;;;1.92;0.73;;;26.10;85.70;;;;;;4848551;29;20202;-82
2023/07/23 02:52:12;;;;;;;0.90;0.55;;;26.10;85.50;;;;;;4854768;29;20220;-82
2023/07/23 02:54:42;;;;;;;0.98;0.95;;;26.10;85.60;;;;;;4853994;29;20208;-82
2023/07/23 02:57:10;;;;;;;3.22;1.13;;;26.10;85.90;;;;;;4855502;29;20198;-80
2023/07/23 02:59:39;;;;;;;0.65;0.40;;;26.10;86.10;;;;;;4854464;29;20209;-81
2023/07/23 03:02:09;;;;;;;1.42;0.52;;;26.00;86.20;;;;;;4852823;29;20202;-81
2023/07/23 03:04:40;;;;;;;1.05;1.00;;;26.00;86.20;;;;;;4848875;29;20237;-82
2023/07/23 03:07:09;;;;;;;1.08;0.95;;;25.90;86.10;;;;;;4856374;29;20572;-81
2023/07/23 03:09:38;;;;;;;0.80;0.60;;;25.90;86.80;;;;;;4853558;29;20233;-81
2023/07/23 03:12:09;;;;;;;0.95;0.63;;;25.90;87.90;;;;;;4851682;29;20209;-82
2023/07/23 03:14:40;;;;;;;0.80;0.60;;;25.80;88.30;;;;;;4853149;29;20198;-82
2023/07/23 03:17:11;;;;;;;1.08;0.82;;;25.80;88.60;;;;;;4854212;29;20250;-82
2023/07/23 03:19:39;;;;;;;1.02;0.93;;;25.80;89.70;;;;;;4849495;29;20252;-82
2023/07/23 03:22:08;;;;;;;0.80;0.80;;;25.80;89.90;;;;;;4856588;29;20558;-82
2023/07/23 03:24:37;;;;;;;0.80;0.70;;;25.80;89.50;;;;;;4855676;29;20682;-82
2023/07/23 03:27:06;;;;;;;0.50;0.50;;;25.80;89.70;;;;;;4852067;29;20317;-81
2023/07/23 03:29:34;;;;;;;0.95;0.40;;;25.70;89.20;;;;;;4855813;29;20205;-82
2023/07/23 03:32:03;;;;;;;0.30;0.30;;;25.70;88.80;;;;;;4854479;29;20202;-81
2023/07/23 03:34:34;;;;;;;1.90;0.95;;;25.70;89.60;;;;;;4856040;29;20647;-80
2023/07/23 03:37:02;;;;;;;0.52;0.52;;;25.70;89.80;;;;;;4851862;29;20297;-82
2023/07/23 03:39:31;;;;;;;1.33;0.85;;;25.70;89.50;;;;;;4845537;29;20564;-82
2023/07/23 03:42:00;;;;;;;0.55;0.35;;;25.70;89.70;;;;;;4856510;29;20206;-81
2023/07/23 03:44:28;;;;;;;0.50;0.50;;;25.80;89.60;;;;;;4855116;29;20198;-81
2023/07/23 03:47:04;;;;;;;0.50;0.50;;;25.70;89.60;;;;;;4852748;29;20475;-82
2023/07/23 03:49:35;;;;;;;0.25;0.25;;;25.70;89.40;;;;;;4845769;29;20245;-81
2023/07/23 03:52:04;;;;;;;0.30;0.30;;;25.70;89.10;;;;;;4854800;29;20198;-83
2023/07/23 03:54:33;;;;;;;0.50;0.43;;;25.70;89.30;;;;;;4857353;29;20956;-82
2023/07/23 03:57:02;;;;;;;0.30;0.30;;;25.70;89.70;;;;;;4849307;29;20210;-80
2023/07/23 03:59:31;;;;;;;0.60;0.60;;;25.70;89.60;;;;;;4854545;29;20198;-81
2023/07/23 04:01:59;;;;;;;1.00;0.75;;;25.70;89.70;;;;;;4853117;29;20206;-82
2023/07/23 04:04:28;;;;;;;1.17;0.98;;;25.70;89.90;;;;;;4848315;29;20212;-82
2023/07/23 04:06:59;;;;;;;0.60;0.52;;;25.60;90.00;;;;;;4853109;29;20757;-81
2023/07/23 04:09:27;;;;;;;0.95;0.60;;;25.60;90.00;;;;;;4847353;29;20237;-82
2023/07/23 04:11:57;;;;;;;0.35;0.35;;;25.60;90.00;;;;;;4852634;29;20286;-81
2023/07/23 04:14:27;;;;;;;0.40;0.32;;;25.60;90.10;;;;;;4854211;29;20194;-82
2023/07/23 04:16:56;;;;;;;0.95;0.88;;;25.60;90.10;;;;;;4855269;29;20700;-82
2023/07/23 04:19:24;;;;;;;0.80;0.80;;;25.60;90.10;;;;;;4849928;29;20221;-82
2023/07/23 04:21:56;;;;;;;0.38;0.38;;;25.60;90.10;;;;;;4848685;29;20255;-83
2023/07/23 04:24:26;;;;;;;3.47;0.47;;;25.50;90.20;;;;;;4848861;29;20642;-83
2023/07/23 04:26:55;;;;;;;1.25;0.52;;;25.60;90.20;;;;;;4854818;29;20230;-81
2023/07/23 04:29:24;;;;;;;4.28;1.02;;;25.60;90.10;;;;;;4853865;29;20213;-82
2023/07/23 04:31:56;;;;;;;0.63;0.30;;;25.60;90.10;;;;;;4848970;29;20209;-82
2023/07/23 04:34:24;;;;;;;0.35;0.35;;;25.60;90.10;;;;;;4854525;29;20297;-83
2023/07/23 04:36:56;;;;;;;1.08;0.70;;;25.60;90.20;;;;;;4852825;29;20206;-83
2023/07/23 04:39:35;;;;;;;1.27;0.50;;;25.60;90.30;;;;;;4855444;29;20457;-83
2023/07/23 04:42:04;;;;;;;0.45;0.45;;;25.60;90.40;;;;;;4851945;29;20609;-83
2023/07/23 04:44:32;;;;;;;1.08;0.65;;;25.60;90.40;;;;;;4849556;29;20198;-82
2023/07/23 04:47:01;;;;;;;0.40;0.40;;;25.60;90.70;;;;;;4858442;29;20298;-83
2023/07/23 04:49:30;;;;;;;0.73;0.40;;;25.60;91.10;;;;;;4857897;29;20210;-82
2023/07/23 04:51:59;;;;;;;0.55;0.40;;;25.60;91.30;;;;;;4850950;29;20198;-82
2023/07/23 04:54:29;;;;;;;0.20;0.20;;;25.60;91.10;;;;;;4854235;29;20565;-81
2023/07/23 04:56:58;;;;;;;1.35;0.88;;;25.60;91.00;;;;;;4855557;29;20206;-82
2023/07/23 04:59:26;;;;;;;1.30;0.50;;;25.60;91.00;;;;;;4852145;29;20203;-82
2023/07/23 05:01:55;;;;;;;1.35;0.82;;;25.60;91.00;;;;;;4852914;29;20293;-81
2023/07/23 05:04:24;;;;;;;1.23;1.13;;;25.60;91.00;;;;;;4853094;29;20225;-82
2023/07/23 05:06:53;;;;;;;0.80;0.73;;;25.60;90.90;;;;;;4857139;29;20209;-80
2023/07/23 05:09:22;;;;;;;1.63;1.52;;;25.70;91.00;;;;;;4848968;29;20241;-82
2023/07/23 05:11:54;;;;;;;8.13;2.47;;;25.70;91.10;;;;;;4840793;29;20210;-81
2023/07/23 05:14:23;;;;;;;4.78;2.05;;;25.70;91.20;;;;;;4832593;29;20204;-81
2023/07/23 05:16:52;;;;;;;7.85;2.50;;;25.70;91.20;;;;;;4833761;29;20196;-81
2023/07/23 05:19:20;;;;;;;4.72;1.13;;;25.80;91.20;;;;;;4820115;29;20649;-81
2023/07/23 05:21:49;;;;;;;2.28;2.08;;;25.80;91.10;;;;;;4834122;29;20211;-82
2023/07/23 05:24:18;;;;;;;1.48;1.38;;;25.90;91.00;;;;;;4821493;29;20659;-81
2023/07/23 05:26:46;;;;;;;2.88;1.52;;;25.90;91.00;;;;;;4830695;29;20297;-81
2023/07/23 05:29:16;;;;;;;1.10;0.73;;;26.00;91.20;;;;;;4839288;29;20226;-79
2023/07/23 05:31:45;;;;;;;0.90;0.90;;;26.00;91.10;;;;;;4837691;29;20210;-81
2023/07/23 05:34:13;;;;;;;0.73;0.68;;;26.10;91.00;;;;;;4836065;29;20255;-81
2023/07/23 05:36:42;;;;;;;1.13;0.45;;;26.10;91.00;;;;;;4835906;29;20289;-81
2023/07/23 05:39:10;;;;;;;1.35;1.00;;;26.10;91.00;;;;;;4836564;29;20668;-82
2023/07/23 05:41:39;;;;;;;0.65;0.45;;;26.10;91.00;;;;;;4836589;29;20211;-81
2023/07/23 05:44:07;;;;;;;0.40;0.40;;;26.10;90.70;;;;;;4835143;29;20248;-81
2023/07/23 05:46:37;;;;;;;0.30;0.30;;;26.20;90.70;;;;;;4834438;29;20199;-81
2023/07/23 05:49:06;;;;;;;1.58;0.75;;;26.20;90.50;;;;;;4831598;29;20240;-83
2023/07/23 05:51:35;;;;;;;0.80;0.80;;;26.30;90.60;;;;;;4815885;29;20210;-81
2023/07/23 05:54:03;;;;;;;1.60;0.90;;;26.40;90.50;;;;;;4829896;29;20204;-82
2023/07/23 05:56:32;;;;;;;0.63;0.40;;;26.40;90.40;;;;;;4816455;29;21213;-81
2023/07/23 05:59:00;;;;;;;0.38;0.30;;;26.50;90.20;;;;;;4836445;29;20198;-81
2023/07/23 06:01:29;;;;;;;0.75;0.60;;;26.50;90.00;;;;;;4820679;29;20213;-81
2023/07/23 06:04:00;;;;;;;0.30;0.30;;;26.60;89.80;;;;;;4832458;29;20671;-82
2023/07/23 06:06:30;;;;;;;0.45;0.40;;;26.60;89.40;;;;;;4829183;29;20568;-82
2023/07/23 06:08:58;;;;;;;0.82;0.60;;;26.70;88.30;;;;;;4822447;29;20241;-82
2023/07/23 06:11:27;;;;;;;0.60;0.45;;;26.70;87.70;;;;;;4853649;29;20205;-82
2023/07/23 06:13:56;;;;;;;0.90;0.90;;;26.70;87.30;;;;;;4850435;29;20667;-83
2023/07/23 06:16:25;;;;;;;0.40;0.40;;;26.70;86.40;;;;;;4853175;29;20273;-83
2023/07/23 06:18:54;;;;;;;0.50;0.43;;;26.70;86.30;;;;;;4854453;29;20205;-83
2023/07/23 06:21:25;;;;;;;0.47;0.40;;;26.80;86.30;;;;;;4856452;29;20288;-82
2023/07/23 06:23:54;;;;;;;0.38;0.38;;;26.80;86.20;;;;;;4856016;29;21254;-83
2023/07/23 06:26:24;;;;;;;0.75;0.70;;;26.80;86.00;;;;;;4857456;29;20677;-82
2023/07/23 06:28:52;;;;;;;0.57;0.55;;;26.90;85.40;;;;;;4852850;29;20260;-82
2023/07/23 06:31:21;;;;;;;0.40;0.40;;;26.90;85.00;;;;;;4845047;29;20212;-81
2023/07/23 06:33:49;;;;;;;1.08;0.55;;;26.90;84.60;;;;;;4854341;29;20630;-82
2023/07/23 06:36:18;;;;;;;0.85;0.52;;;27.00;84.60;;;;;;4856482;29;20221;-82
2023/07/23 06:38:49;;;;;;;0.80;0.52;;;27.00;84.60;;;;;;4851960;29;20218;-85
2023/07/23 06:41:17;;;;;;;0.35;0.30;;;26.90;84.40;;;;;;4855658;29;20194;-83
2023/07/23 06:43:47;;;;;;;0.38;0.38;;;27.00;84.30;;;;;;4849260;29;20198;-81
2023/07/23 06:46:18;;;;;;;0.40;0.40;;;27.00;83.50;;;;;;4847039;29;20198;-83
2023/07/23 06:48:47;;;;;;;0.60;0.60;;;27.00;83.20;;;;;;4855654;29;20313;-83
2023/07/23 06:51:15;;;;;;;2.55;0.55;;;27.00;83.20;;;;;;4853480;29;20202;-83
2023/07/23 06:53:44;;;;;;;0.55;0.55;;;27.10;83.40;;;;;;4854475;29;20627;-82
2023/07/23 06:56:15;;;;;;;1.50;0.98;;;27.10;83.40;;;;;;4852193;29;20206;-84
2023/07/23 06:58:44;;;;;;;0.50;0.50;;;27.10;83.40;;;;;;4850121;29;20235;-83
2023/07/23 07:01:12;;;;;;;0.35;0.25;;;27.20;83.40;;;;;;4848037;29;20209;-83
2023/07/23 07:03:42;;;;;;;0.75;0.68;;;27.20;83.40;;;;;;4847869;29;20198;-88
2023/07/23 07:06:10;;;;;;;1.05;0.32;;;27.20;83.30;;;;;;4846157;29;20255;-80
2023/07/23 07:08:39;;;;;;;0.40;0.40;;;27.30;83.10;;;;;;4848202;29;20230;-81
2023/07/23 07:11:09;;;;;;;1.45;0.30;;;27.30;82.60;;;;;;4830028;29;20211;-82
2023/07/23 07:13:40;;;;;;;1.08;0.98;;;27.40;82.50;;;;;;4839475;29;20202;-82
2023/07/23 07:16:10;;;;;;;0.70;0.70;;;27.50;82.60;;;;;;4838904;29;20612;-82
2023/07/23 07:18:38;;;;;;;0.30;0.30;;;27.50;82.80;;;;;;4833975;29;20203;-83
2023/07/23 07:21:07;;;;;;;1.50;0.98;;;27.60;82.80;;;;;;4822309;29;20202;-83
2023/07/23 07:23:35;;;;;;;0.52;0.40;;;27.60;81.70;;;;;;4833423;29;20199;-82
2023/07/23 07:26:04;;;;;;;0.63;0.50;;;27.70;81.90;;;;;;4836682;29;20199;-82
2023/07/23 07:28:34;;;;;;;1.30;0.65;;;27.70;81.80;;;;;;4838657;29;20309;-82
2023/07/23 07:31:04;;;;;;;0.40;0.40;;;27.80;81.70;;;;;;4836842;29;20210;-81
2023/07/23 07:33:32;;;;;;;0.93;0.85;;;27.80;81.60;;;;;;4831631;29;20699;-83
2023/07/23 07:36:01;;;;;;;1.95;0.68;;;27.90;81.30;;;;;;4818536;29;20198;-82
2023/07/23 07:38:30;;;;;;;0.50;0.50;;;28.00;81.30;;;;;;4838859;29;20206;-81
2023/07/23 07:41:01;;;;;;;0.30;0.30;;;28.00;80.80;;;;;;4834589;29;20199;-81
2023/07/23 07:43:30;;;;;;;0.85;0.65;;;28.00;79.30;;;;;;4827589;29;20584;-83
2023/07/23 07:46:00;;;;;;;0.50;0.50;;;28.00;78.60;;;;;;4839980;29;20667;-81
2023/07/23 07:48:31;;;;;;;0.65;0.50;;;28.00;78.40;;;;;;4832989;29;20206;-82
2023/07/23 07:51:01;;;;;;;0.95;0.60;;;28.00;78.70;;;;;;4833472;29;20190;-81
2023/07/23 07:53:30;;;;;;;1.70;0.65;;;28.10;79.80;;;;;;4828552;29;20663;-82
2023/07/23 07:56:00;;;;;;;0.40;0.40;;;28.10;79.10;;;;;;4826084;29;20206;-80
2023/07/23 07:58:30;;;;;;;0.40;0.40;;;28.20;78.60;;;;;;4832299;29;20655;-81
2023/07/23 08:00:59;;;;;;;0.57;0.50;;;28.30;78.60;;;;;;4835850;29;20198;-90
2023/07/23 08:03:31;;;;;;;0.40;0.40;;;28.30;78.60;;;;;;4825867;29;20219;-80
2023/07/23 08:06:03;;;;;;;0.40;0.40;;;28.40;78.80;;;;;;4841111;29;20202;-81
2023/07/23 08:08:37;;;;;;;0.98;0.95;;;28.50;78.60;;;;;;4841709;29;20206;-79
2023/07/23 08:11:08;;;;;;;0.40;0.40;;;28.50;77.70;;;;;;4843929;29;20723;-81
2023/07/23 08:13:38;;;;;;;1.92;1.05;;;28.50;77.20;;;;;;4836257;29;20190;-81
2023/07/23 08:16:07;;;;;;;0.52;0.52;;;28.60;77.20;;;;;;4843691;29;20203;-82
2023/07/23 08:18:44;;;;;;;0.40;0.40;;;28.50;77.20;;;;;;4843025;29;20222;-82
2023/07/23 08:21:13;;;;;;;1.60;0.40;;;28.60;77.20;;;;;;4842224;29;20210;-81
2023/07/23 08:23:46;;;;;;;0.90;0.57;;;28.60;77.30;;;;;;4835807;29;20263;-81
2023/07/23 08:26:21;;;;;;;2.13;1.10;;;28.70;77.20;;;;;;4842766;29;20229;-81
2023/07/23 08:28:52;;;;;;;0.20;0.20;;;28.80;76.30;;;;;;4839718;29;20206;-81
2023/07/23 08:31:24;;;;;;;0.40;0.40;;;28.80;76.30;;;;;;4842897;29;20241;-80
2023/07/23 08:33:55;;;;;;;0.52;0.52;;;28.90;76.40;;;;;;4838207;29;20977;-80
2023/07/23 08:36:26;;;;;;;0.65;0.38;;;28.90;76.00;;;;;;4826523;29;20206;-81
2023/07/23 08:38:55;;;;;;;1.02;0.93;;;28.90;75.80;;;;;;4827538;29;20294;-80
2023/07/23 08:41:33;;;;;;;0.70;0.50;;;28.80;75.20;;;;;;4831086;29;20226;-81
2023/07/23 08:44:41;;;;;;;0.40;0.40;;;28.80;75.30;;;;;;4831615;29;20202;-81
2023/07/23 08:47:11;;;;;;;0.55;0.55;;;28.90;75.50;;;;;;4825327;29;20202;-80
2023/07/23 08:49:43;;;;;;;1.60;0.75;;;28.80;75.20;;;;;;4839879;29;20574;-79
2023/07/23 08:52:12;;;;;;;0.40;0.40;;;28.70;74.30;;;;;;4840238;29;20202;-80
2023/07/23 08:54:42;;;;;;;0.55;0.55;;;28.70;74.80;;;;;;4836428;29;20293;-81
2023/07/23 08:57:10;;;;;;;0.57;0.57;;;28.70;75.00;;;;;;4841911;29;20210;-81
2023/07/23 08:59:40;;;;;;;0.30;0.30;;;28.80;75.20;;;;;;4834929;29;20303;-81
2023/07/23 09:02:12;;;;;;;0.77;0.60;;;28.80;75.90;;;;;;4836896;29;20213;-81
2023/07/23 09:04:42;;;;;;;0.22;0.22;;;28.90;75.40;;;;;;4833328;29;20293;-81
2023/07/23 09:07:12;;;;;;;0.25;0.22;;;28.90;75.20;;;;;;4832016;29;20202;-80
2023/07/23 09:09:40;;;;;;;0.85;0.82;;;29.00;75.50;;;;;;4831087;29;20262;-81
2023/07/23 09:12:10;;;;;;;1.02;0.70;;;29.00;76.00;;;;;;4831814;29;20207;-80
2023/07/23 09:14:43;;;;;;;2.28;0.85;;;29.00;76.10;;;;;;4835961;29;20282;-81
2023/07/23 09:17:21;;;;;;;0.20;0.20;;;29.10;75.60;;;;;;4831995;29;20206;-80
2023/07/23 09:19:54;;;;;;;0.55;0.40;;;29.10;75.40;;;;;;4837352;29;20237;-80
2023/07/23 09:22:23;;;;;;;0.43;0.43;;;29.20;75.40;;;;;;4821602;29;20286;-83
2023/07/23 09:24:58;;;;;;;2.42;1.00;;;29.20;74.80;;;;;;4835100;29;20207;-81
2023/07/23 09:27:35;;;;;;;0.50;0.50;;;29.10;73.80;;;;;;4837497;29;20214;-81
2023/07/23 09:30:04;;;;;;;0.40;0.32;;;29.10;74.40;;;;;;4837924;29;20233;-82
2023/07/23 09:32:32;;;;;;;0.25;0.25;;;29.20;74.60;;;;;;4840254;29;20195;-82
2023/07/23 09:35:03;;;;;;;0.25;0.25;;;29.10;74.10;;;;;;4840156;29;20207;-82
2023/07/23 09:37:33;;;;;;;0.20;0.20;;;29.00;73.40;;;;;;4838786;29;20927;-82
2023/07/23 09:40:01;;;;;;;0.68;0.35;;;29.00;73.60;;;;;;4839873;29;20211;-80
2023/07/23 09:42:30;;;;;;;0.20;0.20;;;29.00;74.00;;;;;;4839108;29;20202;-81
2023/07/23 09:45:02;;;;;;;2.28;1.05;;;29.00;74.00;;;;;;4830534;29;20770;-87
2023/07/23 09:47:31;;;;;;;0.45;0.45;;;28.90;73.80;;;;;;4829734;29;20270;-79
2023/07/23 09:50:00;;;;;;;0.25;0.25;;;28.80;73.10;;;;;;4830458;29;20318;-81
2023/07/23 09:52:36;;;;;;;0.57;0.57;;;28.80;73.30;;;;;;4815701;29;20207;-80
2023/07/23 09:55:05;;;;;;;0.20;0.20;;;28.80;73.40;;;;;;4828488;29;20714;-79
2023/07/23 09:57:35;;;;;;;0.20;0.20;;;28.70;72.80;;;;;;4841510;29;20265;-81
2023/07/23 10:00:05;;;;;;;0.38;0.38;;;28.70;73.00;;;;;;4833279;29;20251;-80
2023/07/23 10:02:39;;;;;;;1.02;0.93;;;28.60;73.20;;;;;;4832799;29;20199;-80
2023/07/23 10:05:11;;;;;;;0.60;0.50;;;28.50;73.30;;;;;;4837174;29;20562;-80
2023/07/23 10:07:41;;;;;;;0.82;0.40;;;28.40;73.80;;;;;;4845716;29;20651;-81
2023/07/23 10:10:10;;;;;;;0.68;0.60;;;28.50;74.00;;;;;;4840228;29;20241;-79
2023/07/23 10:12:38;;;;;;;0.73;0.73;;;28.50;73.80;;;;;;4836729;29;20203;-80
2023/07/23 10:15:08;;;;;;;0.75;0.75;;;28.50;74.20;;;;;;4838678;29;20339;-82
2023/07/23 10:17:40;;;;;;;0.50;0.50;;;28.60;74.20;;;;;;4839598;29;20559;-80
2023/07/23 10:20:11;;;;;;;0.52;0.52;;;28.60;74.30;;;;;;4836239;29;20628;-80
2023/07/23 10:22:45;;;;;;;0.30;0.30;;;28.70;74.40;;;;;;4838922;29;20573;-80
2023/07/23 10:25:30;;;;;;;0.68;0.57;;;28.70;74.30;;;;;;4835408;29;20203;-81
2023/07/23 10:28:05;;;;;;;1.23;0.45;;;28.70;73.70;;;;;;4831316;29;20203;-82
2023/07/23 10:30:36;;;;;;;0.40;0.40;;;28.70;73.70;;;;;;4830812;29;20229;-81
2023/07/23 10:33:33;;;;;;;0.77;0.45;;;28.70;73.30;;;;;;4824495;29;20206;-82
2023/07/23 10:36:04;;;;;;;0.20;0.20;;;28.70;73.00;;;;;;4790073;29;20279;-80
2023/07/23 10:38:36;;;;;;;0.38;0.38;;;28.70;73.30;;;;;;4832667;29;20206;-81
2023/07/23 10:41:06;;;;;;;0.52;0.40;;;28.70;73.60;;;;;;4835086;29;20283;-82
2023/07/23 10:43:43;;;;;;;0.70;0.50;;;28.60;72.80;;;;;;4828627;29;20198;-82
2023/07/23 10:46:13;;;;;;;0.68;0.68;;;28.70;73.00;;;;;;4835799;29;20655;-80
2023/07/23 10:48:45;;;;;;;0.20;0.20;;;28.80;72.80;;;;;;4840529;29;20214;-80
2023/07/23 10:51:15;;;;;;;2.05;0.38;;;28.80;72.50;;;;;;4822657;29;20645;-83
2023/07/23 10:53:55;;;;;;;0.35;0.35;;;28.80;72.40;;;;;;4840822;29;20195;-82
2023/07/23 10:56:26;;;;;;;0.40;0.30;;;28.90;72.20;;;;;;4818356;29;22383;-82
2023/07/23 10:58:58;;;;;;;0.35;0.35;;;29.00;72.50;;;;;;4830453;29;20207;-81
2023/07/23 11:01:29;;;;;;;0.30;0.30;;;28.90;72.00;;;;;;4835222;29;20203;-81
2023/07/23 11:03:58;;;;;;;0.38;0.30;;;29.00;71.20;;;;;;4836479;29;20663;-81
2023/07/23 11:06:33;;;;;;;0.52;0.52;;;29.10;71.40;;;;;;4818484;29;20211;-84
2023/07/23 11:09:06;;;;;;;0.45;0.45;;;29.20;71.60;;;;;;4825568;29;20247;-83
2023/07/23 11:11:40;;;;;;;0.77;0.70;;;29.30;71.10;;;;;;4855160;29;20224;-81
2023/07/23 11:14:19;;;;;;;1.42;0.40;;;29.30;69.10;;;;;;4845243;29;20854;-81
2023/07/23 11:16:50;;;;;;;0.25;0.25;;;29.30;68.70;;;;;;4847353;29;20216;-82
2023/07/23 11:19:19;;;;;;;0.38;0.38;;;29.30;68.60;;;;;;4853706;29;20198;-82
2023/07/23 11:21:52;;;;;;;0.38;0.28;;;29.30;68.50;;;;;;4847088;29;20212;-82
2023/07/23 11:24:22;;;;;;;0.73;0.70;;;29.50;68.80;;;;;;4855214;29;20201;-81
2023/07/23 11:26:51;;;;;;;0.20;0.20;;;29.50;69.10;;;;;;4851158;29;20213;-81
2023/07/23 11:29:24;;;;;;;0.20;0.20;;;29.50;69.00;;;;;;4854560;29;20262;-82
2023/07/23 11:31:53;;;;;;;0.50;0.30;;;29.60;69.20;;;;;;4854646;29;20221;-81
2023/07/23 11:34:24;;;;;;;1.48;1.00;;;29.50;67.90;;;;;;4850682;29;20697;-82
2023/07/23 11:36:55;;;;;;;0.40;0.40;;;29.50;67.70;;;;;;4853355;29;20194;-81
2023/07/23 11:39:25;;;;;;;2.22;0.85;;;29.50;68.30;;;;;;4854786;29;20209;-82
2023/07/23 11:41:54;;;;;;;0.30;0.30;;;29.50;68.10;;;;;;4850605;29;20234;-81
2023/07/23 11:44:24;;;;;;;0.30;0.30;;;29.40;67.30;;;;;;4853147;29;20280;-81
2023/07/23 11:47:01;;;;;;;0.70;0.70;;;29.40;67.80;;;;;;4854513;29;20221;-82
2023/07/23 11:49:30;;;;;;;0.60;0.60;;;29.40;68.00;;;;;;4856440;29;20207;-82
2023/07/23 11:51:59;;;;;;;0.25;0.25;;;29.40;67.70;;;;;;4861552;29;20228;-82
2023/07/23 11:54:29;;;;;;;0.57;0.57;;;29.30;67.60;;;;;;4856991;29;20204;-81
2023/07/23 11:56:57;;;;;;;0.68;0.50;;;29.30;67.50;;;;;;4849683;29;20210;-81
2023/07/23 11:59:26;;;;;;;0.70;0.57;;;29.30;67.60;;;;;;4850877;29;20209;-85
2023/07/23 12:01:58;;;;;;;0.30;0.30;;;29.30;67.40;;;;;;4850445;29;20683;-85
2023/07/23 12:04:26;;;;;;;0.20;0.20;;;29.40;67.70;;;;;;4849518;29;20202;-84
2023/07/23 12:06:55;;;;;;;0.85;0.50;;;29.50;67.70;;;;;;4855176;29;20205;-84
2023/07/23 12:09:24;;;;;;;0.20;0.20;;;29.50;67.70;;;;;;4850459;29;20687;-85
2023/07/23 12:11:53;;;;;;;0.85;0.60;;;29.60;66.10;;;;;;4836297;29;20241;-86
2023/07/23 12:14:22;;;;;;;0.22;0.22;;;29.70;65.30;;;;;;4827868;29;20211;-83
2023/07/23 12:16:50;;;;;;;0.50;0.50;;;29.80;65.30;;;;;;4839737;29;20202;-85
2023/07/23 12:19:20;;;;;;;0.30;0.30;;;29.90;64.90;;;;;;4834924;29;20199;-86
2023/07/23 12:21:52;;;;;;;0.30;0.30;;;30.00;64.60;;;;;;4835840;29;20209;-86
2023/07/23 12:24:22;;;;;;;0.80;0.80;;;30.10;65.30;;;;;;4834663;29;20191;-83
2023/07/23 12:26:53;;;;;;;0.98;0.65;;;30.20;65.50;;;;;;4833367;29;20195;-84
2023/07/23 12:29:23;;;;;;;2.90;1.13;;;30.30;65.20;;;;;;4831690;29;20202;-85
2023/07/23 12:32:09;;;;;;;0.20;0.20;;;30.40;65.00;;;;;;4838494;29;20241;-84
2023/07/23 12:34:39;;;;;;;0.38;0.30;;;30.40;63.20;;;;;;4835591;29;20575;-85
2023/07/23 12:37:08;;;;;;;0.80;0.52;;;30.40;62.70;;;;;;4838367;29;20210;-84
2023/07/23 12:39:36;;;;;;;0.35;0.35;;;30.40;63.00;;;;;;4839186;29;20619;-84
2023/07/23 12:42:07;;;;;;;0.22;0.22;;;30.40;62.80;;;;;;4834416;29;20199;-84
2023/07/23 12:44:35;;;;;;;0.20;0.20;;;30.40;62.50;;;;;;4827864;29;20196;-82
2023/07/23 12:47:04;;;;;;;0.20;0.20;;;30.40;61.60;;;;;;4833329;29;20555;-84
2023/07/23 12:49:32;;;;;;;0.63;0.50;;;30.40;62.50;;;;;;4834293;29;20577;-83
2023/07/23 12:52:01;;;;;;;1.33;0.98;;;30.50;63.00;;;;;;4836589;29;20225;-84
2023/07/23 12:54:29;;;;;;;0.30;0.30;;;30.50;61.70;;;;;;4837853;29;20207;-84
2023/07/23 12:56:58;;;;;;;0.28;0.28;;;30.50;62.60;;;;;;4832435;29;20230;-82
2023/07/23 12:59:28;;;;;;;0.47;0.40;;;30.50;62.80;;;;;;4828402;29;20210;-81
2023/07/23 13:01:56;;;;;;;0.20;0.20;;;30.50;62.30;;;;;;4833215;29;20207;-83